Time;durP1;ratioP1;P1;durP2;ratioP2;P2;SDS_P1;SDS_P2;PMS_P1;PMS_P2;Temp;Humidity;BMP_temperature;BMP_pressure;BME280_temperature;BME280_humidity;BME280_pressure;Samples;Min_cycle;Max_cycle;Signal;HPM_P1;HPM_P2
2021/04/30 00:00:34;;;;;;;33.60;21.65;;;;;;;12.85;67.73;97946.87;2269505;78;21365;-77
2021/04/30 00:03:37;;;;;;;37.67;20.10;;;;;;;12.77;68.10;97955.25;2263652;77;21394;-78
2021/04/30 00:06:39;;;;;;;31.33;17.70;;;;;;;12.72;67.86;97956.61;2261287;78;21102;-76
2021/04/30 00:09:40;;;;;;;33.53;18.77;;;;;;;12.70;68.26;97953.14;2261251;78;21404;-77
2021/04/30 00:12:41;;;;;;;26.23;15.43;;;;;;;12.68;68.58;97947.05;2261738;78;21107;-76
2021/04/30 00:15:42;;;;;;;20.95;15.23;;;;;;;12.64;68.96;97932.70;2261886;78;21212;-78
2021/04/30 00:18:43;;;;;;;26.15;16.07;;;;;;;12.62;69.65;97925.31;2261446;78;21488;-77
2021/04/30 00:21:44;;;;;;;29.27;16.40;;;;;;;12.61;69.66;97920.52;2261233;78;21121;-78
2021/04/30 00:24:45;;;;;;;24.47;15.90;;;;;;;12.59;69.75;97909.20;2261242;78;21099;-78
2021/04/30 00:27:46;;;;;;;24.70;17.32;;;;;;;12.58;69.88;97909.21;2261313;78;21348;-78
2021/04/30 00:30:47;;;;;;;24.85;18.23;;;;;;;12.57;70.00;97914.02;2265592;78;21157;-79
2021/04/30 00:33:48;;;;;;;26.90;16.43;;;;;;;12.52;70.38;97931.09;2283585;78;21495;-78
2021/04/30 00:36:49;;;;;;;22.70;13.43;;;;;;;12.43;73.55;97959.53;2261220;78;21075;-78
2021/04/30 00:39:50;;;;;;;17.17;11.63;;;;;;;12.33;72.14;97958.32;2261314;78;21177;-79
2021/04/30 00:42:51;;;;;;;13.53;11.33;;;;;;;12.23;72.77;97954.05;2261550;78;21117;-79
2021/04/30 00:45:53;;;;;;;16.23;12.00;;;;;;;12.16;72.72;97962.39;2261265;78;21110;-80
2021/04/30 00:48:54;;;;;;;13.00;10.87;;;;;;;12.12;72.87;97973.73;2261285;78;21117;-78
2021/04/30 00:51:55;;;;;;;14.50;11.43;;;;;;;12.11;72.50;97962.84;2261362;78;21126;-79
2021/04/30 00:54:56;;;;;;;16.93;11.70;;;;;;;12.10;72.72;97965.90;2258536;78;21154;-80
2021/04/30 00:57:57;;;;;;;13.00;11.37;;;;;;;12.09;73.01;97965.47;2260377;78;21225;-78
2021/04/30 01:00:58;;;;;;;14.97;11.33;;;;;;;12.10;73.00;97965.03;2258099;78;21416;-78
2021/04/30 01:03:59;;;;;;;16.13;11.93;;;;;;;12.07;73.26;97971.16;2275018;78;21133;-79
2021/04/30 01:07:00;;;;;;;15.20;11.80;;;;;;;12.05;73.42;97965.07;2275242;77;21212;-79
2021/04/30 01:10:01;;;;;;;15.80;13.03;;;;;;;12.04;73.64;97966.39;2265314;77;21110;-78
2021/04/30 01:13:02;;;;;;;18.00;12.53;;;;;;;11.99;73.70;97982.56;2260142;78;21110;-78
2021/04/30 01:16:03;;;;;;;16.47;14.60;;;;;;;11.98;73.99;97970.36;2260339;79;21126;-79
2021/04/30 01:19:04;;;;;;;18.80;13.93;;;;;;;11.94;73.77;97970.82;2260149;78;21107;-78
2021/04/30 01:22:05;;;;;;;21.27;13.43;;;;;;;11.88;73.82;97970.88;2260158;78;21126;-78
2021/04/30 01:25:06;;;;;;;16.77;14.50;;;;;;;11.88;74.17;97971.31;2260783;78;21090;-79
2021/04/30 01:28:08;;;;;;;14.53;12.83;;;;;;;11.85;74.25;97970.02;2260146;78;21383;-78
2021/04/30 01:31:09;;;;;;;14.27;12.53;;;;;;;11.78;74.30;97974.42;2257909;78;21412;-78
2021/04/30 01:34:10;;;;;;;15.73;12.10;;;;;;;11.78;74.44;97971.81;2263210;78;21098;-78
2021/04/30 01:37:11;;;;;;;15.03;11.70;;;;;;;11.76;74.52;97965.25;2260009;78;21106;-79
2021/04/30 01:40:12;;;;;;;13.77;10.63;;;;;;;11.76;74.89;97968.30;2259994;78;21428;-78
2021/04/30 01:43:13;;;;;;;12.77;11.10;;;;;;;11.75;74.85;97983.13;2260353;78;21376;-79
2021/04/30 01:46:14;;;;;;;15.67;11.20;;;;;;;11.73;74.80;97982.27;2260441;79;21224;-79
2021/04/30 01:49:15;;;;;;;17.20;12.03;;;;;;;11.70;74.89;97981.42;2260310;78;21091;-78
2021/04/30 01:52:16;;;;;;;16.93;12.10;;;;;;;11.67;75.22;97973.16;2260131;78;21392;-77
2021/04/30 01:55:17;;;;;;;12.77;11.27;;;;;;;11.66;75.43;97983.19;2266293;78;21130;-78
2021/04/30 01:58:18;;;;;;;15.10;12.30;;;;;;;11.66;75.55;97987.55;2261249;78;21229;-77
2021/04/30 02:01:19;;;;;;;19.57;13.67;;;;;;;11.66;75.88;97987.11;2261001;78;21249;-77
2021/04/30 02:04:23;;;;;;;17.20;12.73;;;;;;;11.67;76.10;97993.20;2261868;78;21118;-77
2021/04/30 02:07:24;;;;;;;18.50;12.47;;;;;;;11.70;76.02;97995.80;2261232;78;21216;-78
2021/04/30 02:10:25;;;;;;;15.03;12.93;;;;;;;11.69;75.88;97990.14;2261072;78;21388;-77
2021/04/30 02:13:26;;;;;;;18.53;13.20;;;;;;;11.72;75.63;97995.35;2261236;78;21106;-79
2021/04/30 02:16:27;;;;;;;16.23;13.40;;;;;;;11.76;75.69;97984.86;2261012;78;21098;-77
2021/04/30 02:19:28;;;;;;;24.03;14.20;;;;;;;11.79;76.03;97985.31;2261101;78;21177;-78
2021/04/30 02:22:29;;;;;;;26.93;14.43;;;;;;;11.78;75.93;97978.34;2261165;78;21384;-78
2021/04/30 02:25:30;;;;;;;21.70;14.97;;;;;;;11.81;76.10;97988.78;2260941;78;21071;-77
2021/04/30 02:28:31;;;;;;;19.63;14.70;;;;;;;11.83;76.39;97987.47;2261095;78;21110;-78
2021/04/30 02:31:33;;;;;;;20.50;15.40;;;;;;;11.85;76.28;97982.66;2261697;78;21413;-78
2021/04/30 02:34:34;;;;;;;21.67;15.60;;;;;;;11.87;76.16;97991.80;2261219;78;21515;-79
2021/04/30 02:37:35;;;;;;;20.73;15.17;;;;;;;11.89;76.35;97987.43;2261321;78;21074;-79
2021/04/30 02:40:36;;;;;;;20.53;13.50;;;;;;;11.89;76.47;97983.50;2261394;78;21150;-79
2021/04/30 02:43:37;;;;;;;16.80;12.17;;;;;;;12.04;76.85;97986.00;2261199;78;21336;-78
2021/04/30 02:46:38;;;;;;;18.23;13.43;;;;;;;13.29;75.91;97985.70;2261585;78;21122;-78
2021/04/30 02:49:41;;;;;;;17.90;13.62;;;;;;;14.15;73.59;97988.43;2261339;78;21098;-79
2021/04/30 02:52:42;;;;;;;19.98;14.28;;;;;;;13.75;72.12;97998.63;2261525;78;21119;-80
2021/04/30 02:55:43;;;;;;;15.83;12.67;;;;;;;13.33;72.11;98007.05;2280488;77;21527;-78
2021/04/30 02:58:44;;;;;;;16.37;13.27;;;;;;;13.01;72.50;98008.70;2301146;77;21264;-79
2021/04/30 03:01:45;;;;;;;20.35;14.03;;;;;;;12.74;72.91;98018.13;2274463;77;21119;-79
2021/04/30 03:04:46;;;;;;;15.70;13.47;;;;;;;12.56;73.38;98025.72;2264868;78;21380;-79
2021/04/30 03:07:47;;;;;;;19.30;14.27;;;;;;;12.47;73.83;98017.08;2264793;78;21225;-81
2021/04/30 03:10:48;;;;;;;19.30;15.37;;;;;;;12.37;74.25;98021.53;2264973;79;21106;-77
2021/04/30 03:13:50;;;;;;;18.45;14.45;;;;;;;12.31;74.86;98021.58;2264830;78;21356;-77
2021/04/30 03:16:51;;;;;;;22.27;15.68;;;;;;;12.21;75.16;98018.61;2264962;78;21106;-78
2021/04/30 03:19:52;;;;;;;18.50;15.17;;;;;;;12.13;75.24;98021.25;2264311;78;21138;-77
2021/04/30 03:22:53;;;;;;;20.57;16.10;;;;;;;12.07;75.42;98020.86;2264340;78;21376;-79
2021/04/30 03:25:54;;;;;;;21.40;15.83;;;;;;;;;;2264660;78;21098;-78
2021/04/30 03:28:55;;;;;;;19.10;14.43;;;;;;;12.00;75.42;98034.86;2264773;78;21094;-77
2021/04/30 03:31:57;;;;;;;20.50;15.50;;;;;;;11.96;75.73;98035.75;2265008;79;21110;-78
2021/04/30 03:34:58;;;;;;;19.40;15.00;;;;;;;11.95;76.05;98035.77;2264582;78;21098;-79
2021/04/30 03:38:00;;;;;;;21.83;15.07;;;;;;;11.94;76.23;98031.41;2264669;78;21067;-78
2021/04/30 03:41:02;;;;;;;18.10;14.27;;;;;;;11.92;76.31;98031.42;2264839;79;21141;-79
2021/04/30 03:44:03;;;;;;;21.20;15.97;;;;;;;11.91;76.69;98042.77;2264925;78;21094;-78
2021/04/30 03:47:04;;;;;;;22.17;15.57;;;;;;;11.90;76.52;98041.47;2264934;79;21110;-78
2021/04/30 03:50:05;;;;;;;24.93;16.43;;;;;;;11.89;76.49;98044.52;2264218;78;21101;-77
2021/04/30 03:53:06;;;;;;;18.10;14.93;;;;;;;11.92;76.79;98048.42;2264867;78;21126;-78
2021/04/30 03:56:07;;;;;;;20.67;16.37;;;;;;;11.91;76.96;98049.74;2272511;78;21432;-79
2021/04/30 03:59:08;;;;;;;21.00;14.93;;;;;;;11.90;76.76;98055.84;2261426;79;21134;-79
2021/04/30 04:02:12;;;;;;;22.05;15.83;;;;;;;11.89;77.23;98061.95;2249584;79;21099;-82
2021/04/30 04:05:13;;;;;;;22.37;15.80;;;;;;;11.83;76.94;98058.94;2261673;78;21432;-82
2021/04/30 04:08:14;;;;;;;24.20;16.97;;;;;;;11.84;76.98;98065.91;2261795;78;21126;-80
2021/04/30 04:11:15;;;;;;;30.37;23.43;;;;;;;11.87;76.91;98064.58;2261501;78;21111;-80
2021/04/30 04:14:16;;;;;;;25.23;19.50;;;;;;;11.93;77.04;98077.62;2261855;78;21098;-80
2021/04/30 04:17:18;;;;;;;24.67;19.10;;;;;;;11.96;77.03;98080.22;2262216;78;21098;-79
2021/04/30 04:20:21;;;;;;;26.33;21.10;;;;;;;11.99;76.98;98078.89;2260926;78;21138;-77
2021/04/30 04:23:22;;;;;;;34.63;25.20;;;;;;;12.05;76.90;98081.47;2261124;78;21377;-81
2021/04/30 04:26:23;;;;;;;28.80;22.90;;;;;;;12.10;76.98;98079.69;2261738;78;21106;-79
2021/04/30 04:29:24;;;;;;;31.77;21.97;;;;;;;12.14;76.76;98084.50;2261751;78;21058;-79
2021/04/30 04:32:25;;;;;;;32.08;25.60;;;;;;;12.20;76.82;98091.44;2261471;78;21146;-80
2021/04/30 04:35:26;;;;;;;30.62;23.30;;;;;;;12.29;76.70;98088.76;2261444;78;21380;-79
2021/04/30 04:38:27;;;;;;;28.27;22.37;;;;;;;12.39;76.51;98083.89;2261413;78;21071;-80
2021/04/30 04:41:28;;;;;;;28.05;22.27;;;;;;;12.47;76.44;98099.53;2261423;78;21098;-81
2021/04/30 04:44:29;;;;;;;24.80;19.10;;;;;;;12.53;76.35;98095.12;2261172;78;21074;-80
2021/04/30 04:47:30;;;;;;;24.30;18.23;;;;;;;12.62;76.25;98101.59;2261178;78;21101;-79
2021/04/30 04:50:39;;;;;;;44.58;24.87;;;;;;;12.65;76.17;98112.03;2261552;78;21102;-79
2021/04/30 04:53:41;;;;;;;33.95;25.30;;;;;;;12.71;76.01;98113.30;2262250;78;21221;-79
2021/04/30 04:56:42;;;;;;;26.60;21.62;;;;;;;12.81;76.09;98122.38;2266714;78;21153;-78
2021/04/30 04:59:43;;;;;;;25.95;19.62;;;;;;;12.84;75.92;98126.28;2264231;78;21110;-77
2021/04/30 05:02:44;;;;;;;21.52;18.62;;;;;;;12.83;75.99;98129.34;2264029;78;21400;-79
2021/04/30 05:05:45;;;;;;;23.87;18.35;;;;;;;12.85;75.85;98128.02;2264040;78;21106;-77
2021/04/30 05:08:46;;;;;;;25.97;20.12;;;;;;;12.90;75.84;98137.58;2264797;78;21392;-78
2021/04/30 05:11:47;;;;;;;25.67;21.87;;;;;;;12.88;75.84;98142.41;2263834;78;21225;-77
2021/04/30 05:14:48;;;;;;;21.95;17.10;;;;;;;12.88;76.04;98141.09;2264058;78;21380;-78
2021/04/30 05:17:49;;;;;;;19.27;16.35;;;;;;;12.93;75.90;98140.17;2263712;78;21110;-77
2021/04/30 05:20:50;;;;;;;22.15;17.45;;;;;;;13.04;75.88;98147.97;2263347;78;21170;-76
2021/04/30 05:23:52;;;;;;;23.98;19.35;;;;;;;13.09;75.56;98154.03;2263374;78;21118;-77
2021/04/30 05:26:53;;;;;;;24.47;16.55;;;;;;;13.13;75.58;98167.53;2263681;78;21102;-79
2021/04/30 05:29:54;;;;;;;19.73;15.45;;;;;;;13.06;74.38;98169.34;2263832;78;21097;-78
2021/04/30 05:32:56;;;;;;;24.92;17.87;;;;;;;12.99;73.98;98171.55;2264155;78;21138;-77
2021/04/30 05:35:57;;;;;;;21.20;16.23;;;;;;;13.07;74.31;98172.83;2264008;78;21118;-78
2021/04/30 05:38:58;;;;;;;19.92;16.35;;;;;;;13.16;74.27;98177.98;2264037;78;21146;-77
2021/04/30 05:42:01;;;;;;;23.87;17.55;;;;;;;13.16;73.27;98181.05;2264834;78;21407;-81
2021/04/30 05:45:02;;;;;;;17.53;13.53;;;;;;;13.16;73.28;98175.37;2264224;78;21078;-78
2021/04/30 05:48:03;;;;;;;15.88;12.90;;;;;;;13.30;70.91;98184.00;2263730;78;21930;-76
2021/04/30 05:51:04;;;;;;;13.40;12.00;;;;;;;13.40;70.70;98186.09;2264079;78;21106;-77
2021/04/30 05:54:06;;;;;;;13.95;10.40;;;;;;;13.54;69.69;98188.58;2252693;79;21118;-77
2021/04/30 05:57:07;;;;;;;17.20;11.53;;;;;;;13.62;68.08;98176.25;2290799;78;21130;-77
2021/04/30 06:00:09;;;;;;;15.28;10.08;;;;;;;13.63;65.48;98181.48;2284491;77;21260;-79
2021/04/30 06:03:10;;;;;;;10.43;9.43;;;;;;;13.69;65.59;98185.34;2260760;79;21106;-75
2021/04/30 06:06:13;;;;;;;12.93;9.98;;;;;;;13.73;64.29;98185.31;2260744;78;21423;-78
2021/04/30 06:09:14;;;;;;;15.43;11.12;;;;;;;13.75;64.59;98188.78;2261380;78;21113;-79
2021/04/30 06:12:15;;;;;;;15.65;9.55;;;;;;;13.85;64.92;98191.73;2260517;78;21495;-77
2021/04/30 06:15:16;;;;;;;13.90;9.98;;;;;;;13.98;62.99;98199.91;2260553;78;21114;-77
2021/04/30 06:18:17;;;;;;;10.93;8.80;;;;;;;14.07;62.87;98201.11;2260844;78;21233;-78
2021/04/30 06:21:19;;;;;;;11.22;8.83;;;;;;;14.12;62.49;98194.05;2260811;78;21110;-78
2021/04/30 06:24:20;;;;;;;12.40;9.70;;;;;;;14.15;62.52;98199.26;2260594;78;21428;-78
2021/04/30 06:27:21;;;;;;;10.45;8.45;;;;;;;14.13;60.76;98194.92;2261051;78;21106;-78
2021/04/30 06:30:22;;;;;;;12.23;8.95;;;;;;;14.09;60.50;98198.47;2260862;78;21122;-78
2021/04/30 06:33:23;;;;;;;10.35;8.48;;;;;;;14.21;58.42;98192.62;2260859;78;21411;-78
2021/04/30 06:36:24;;;;;;;10.78;8.28;;;;;;;14.42;60.74;98195.43;2260806;78;21107;-78
2021/04/30 06:39:26;;;;;;;11.68;8.90;;;;;;;14.55;58.74;98210.13;2260918;78;21146;-78
2021/04/30 06:42:32;;;;;;;16.12;7.35;;;;;;;14.62;59.39;98209.59;2260867;78;21110;-78
2021/04/30 06:45:33;;;;;;;9.98;7.45;;;;;;;14.57;58.96;98209.66;2260497;78;21098;-79
2021/04/30 06:48:35;;;;;;;12.00;8.10;;;;;;;14.47;57.11;98213.30;2260723;78;21130;-79
2021/04/30 06:51:36;;;;;;;9.85;7.10;;;;;;;14.39;59.02;98207.25;2260604;79;21371;-79
2021/04/30 06:54:38;;;;;;;12.68;8.05;;;;;;;14.44;55.94;98203.29;2261161;78;21248;-83
2021/04/30 06:57:39;;;;;;;13.45;7.35;;;;;;;14.46;57.67;98208.94;2128186;84;21506;-79
2021/04/30 07:00:41;;;;;;;9.93;6.50;;;;;;;14.60;58.03;98222.75;2150560;82;21438;-80
2021/04/30 07:03:45;;;;;;;12.33;7.42;;;;;;;14.69;55.88;98218.25;2143314;82;21264;-77
2021/04/30 07:06:45;;;;;;;6.45;5.10;;;;;;;14.86;55.95;98213.65;2142421;82;21130;-79
2021/04/30 07:09:46;;;;;;;7.40;6.50;;;;;;;15.14;54.79;98211.00;2215411;80;21399;-78
2021/04/30 07:12:47;;;;;;;6.05;5.45;;;;;;;15.52;53.85;98214.28;2216715;79;21235;-80
2021/04/30 07:15:48;;;;;;;7.97;6.05;;;;;;;15.98;53.55;98211.30;2213730;80;21124;-79
2021/04/30 07:18:49;;;;;;;10.15;5.97;;;;;;;16.63;51.96;98217.84;2213463;80;21145;-80
2021/04/30 07:21:50;;;;;;;7.40;5.25;;;;;;;16.94;47.75;98223.77;2213751;80;21121;-80
2021/04/30 07:24:52;;;;;;;7.35;5.30;;;;;;;16.96;47.49;98220.64;2214095;80;21117;-79
2021/04/30 07:27:53;;;;;;;8.33;7.05;;;;;;;16.88;48.17;98215.09;2214198;80;21109;-79
2021/04/30 07:30:54;;;;;;;12.80;8.58;;;;;;;16.70;46.70;98219.92;2213923;80;21530;-78
2021/04/30 07:33:55;;;;;;;7.65;6.58;;;;;;;16.45;45.91;98217.77;2213740;80;21133;-78
2021/04/30 07:36:57;;;;;;;6.60;5.40;;;;;;;16.32;45.09;98221.56;2213723;80;21101;-78
2021/04/30 07:39:58;;;;;;;6.72;5.40;;;;;;;16.08;46.52;98224.70;2213536;80;21145;-78
2021/04/30 07:42:59;;;;;;;7.25;5.17;;;;;;;16.11;44.67;98223.32;2213901;80;21116;-78
2021/04/30 07:46:00;;;;;;;6.05;5.30;;;;;;;16.25;46.44;98230.48;2214193;80;21352;-78
2021/04/30 07:49:02;;;;;;;10.00;5.72;;;;;;;16.33;45.28;98227.25;2213669;80;21101;-80
2021/04/30 07:52:03;;;;;;;7.90;5.62;;;;;;;16.30;46.02;98220.73;2214306;80;21098;-79
2021/04/30 07:55:04;;;;;;;5.37;4.60;;;;;;;16.35;44.03;98221.50;2216593;78;21208;-80
2021/04/30 07:58:05;;;;;;;8.98;5.28;;;;;;;16.24;44.84;98229.62;2266839;78;21224;-79
2021/04/30 08:01:06;;;;;;;5.80;5.15;;;;;;;16.24;45.26;98228.76;2266600;77;21170;-80
2021/04/30 08:04:07;;;;;;;9.15;5.62;;;;;;;16.59;45.44;98235.08;2247000;79;21142;-81
2021/04/30 08:07:08;;;;;;;7.47;5.10;;;;;;;16.86;44.06;98233.17;2246833;79;21122;-79
2021/04/30 08:10:09;;;;;;;11.57;5.50;;;;;;;16.85;42.57;98231.44;2246760;79;21083;-79
2021/04/30 08:13:10;;;;;;;9.70;5.85;;;;;;;17.17;42.29;98239.45;2246673;79;21103;-79
2021/04/30 08:16:11;;;;;;;6.75;5.80;;;;;;;17.48;40.75;98236.09;2246647;79;21412;-78
2021/04/30 08:19:12;;;;;;;7.53;5.70;;;;;;;17.74;39.99;98244.23;2246680;79;21423;-78
2021/04/30 08:22:13;;;;;;;6.17;5.50;;;;;;;18.07;40.16;98241.13;2245947;79;21079;-79
2021/04/30 08:25:15;;;;;;;7.80;6.00;;;;;;;18.30;39.63;98237.00;2246931;79;21099;-79
2021/04/30 08:28:17;;;;;;;6.40;4.87;;;;;;;18.40;39.92;98251.68;2246662;79;21115;-79
2021/04/30 08:31:20;;;;;;;6.50;5.30;;;;;;;18.18;38.38;98241.28;2247028;79;21110;-78
2021/04/30 08:34:21;;;;;;;6.87;6.12;;;;;;;17.94;38.88;98237.55;2247157;79;21131;-80
2021/04/30 08:37:22;;;;;;;6.05;5.33;;;;;;;17.82;38.78;98249.30;2247150;79;21414;-79
2021/04/30 08:40:23;;;;;;;6.22;5.42;;;;;;;17.51;38.90;98254.03;2246907;79;21119;-79
2021/04/30 08:43:24;;;;;;;5.60;4.75;;;;;;;17.05;39.37;98249.42;2246900;79;21075;-79
2021/04/30 08:46:25;;;;;;;9.15;5.15;;;;;;;17.10;40.06;98243.14;2246734;79;21385;-79
2021/04/30 08:49:26;;;;;;;5.40;4.90;;;;;;;17.19;40.08;98253.47;2246543;79;21218;-79
2021/04/30 08:52:27;;;;;;;7.85;5.00;;;;;;;17.41;38.67;98245.93;2246628;79;21122;-79
2021/04/30 08:55:29;;;;;;;8.00;5.12;;;;;;;17.53;38.29;98253.98;2248220;78;21094;-79
2021/04/30 08:58:30;;;;;;;6.78;5.37;;;;;;;17.51;37.34;98258.44;2261094;78;21392;-78
2021/04/30 09:01:31;;;;;;;6.92;5.60;;;;;;;17.37;37.93;98259.23;2260629;78;21126;-80
2021/04/30 09:04:32;;;;;;;6.55;5.95;;;;;;;17.37;37.13;98271.11;2260810;79;21157;-81
2021/04/30 09:07:34;;;;;;;6.95;5.30;;;;;;;17.37;37.12;98260.10;2261149;78;21121;-79
2021/04/30 09:10:35;;;;;;;5.50;4.70;;;;;;;17.65;38.21;98253.67;2260558;78;21090;-80
2021/04/30 09:13:40;;;;;;;8.23;4.75;;;;;;;17.93;37.28;98254.30;2260827;78;21353;-78
2021/04/30 09:16:39;;;;;;;7.90;4.15;;;;;;;18.06;37.02;98253.05;2260445;78;21114;-79
2021/04/30 09:19:46;;;;;;;9.05;4.75;;;;;;;18.14;35.76;98261.63;2261091;78;21166;-78
2021/04/30 09:22:46;;;;;;;6.58;4.50;;;;;;;18.09;36.91;98264.86;2261133;78;21094;-80
2021/04/30 09:25:47;;;;;;;4.15;3.75;;;;;;;18.27;36.10;98272.30;2261274;78;21217;-79
2021/04/30 09:28:48;;;;;;;7.03;4.17;;;;;;;18.40;34.88;98275.46;2260964;78;21125;-80
2021/04/30 09:31:49;;;;;;;7.42;4.47;;;;;;;18.32;32.71;98273.03;2260868;78;21107;-79
2021/04/30 09:34:50;;;;;;;8.63;4.80;;;;;;;18.18;32.59;98272.52;2260991;79;21249;-79
2021/04/30 09:37:52;;;;;;;6.12;5.53;;;;;;;18.05;34.75;98268.48;2260734;78;21224;-78
2021/04/30 09:40:53;;;;;;;5.30;4.60;;;;;;;17.86;33.77;98277.36;2261420;78;21145;-79
2021/04/30 09:43:54;;;;;;;7.28;5.42;;;;;;;17.90;33.55;98282.10;2261228;78;21201;-79
2021/04/30 09:46:55;;;;;;;6.17;4.70;;;;;;;18.15;34.59;98276.12;2260724;79;21114;-80
2021/04/30 09:49:56;;;;;;;10.10;5.30;;;;;;;18.30;35.52;98272.67;2260946;78;21138;-81
2021/04/30 09:52:57;;;;;;;6.60;5.08;;;;;;;18.44;34.30;98279.75;2260942;78;21225;-80
2021/04/30 09:55:58;;;;;;;7.53;5.40;;;;;;;18.23;33.96;98283.86;2263195;78;21319;-79
2021/04/30 09:58:59;;;;;;;6.80;4.80;;;;;;;18.16;33.56;98284.91;2275109;77;21146;-77
2021/04/30 10:02:01;;;;;;;5.30;4.80;;;;;;;18.04;35.09;98276.87;2262300;77;21217;-78
2021/04/30 10:05:02;;;;;;;7.28;4.75;;;;;;;18.17;33.85;98276.53;2260172;79;21414;-78
2021/04/30 10:08:04;;;;;;;6.10;4.70;;;;;;;18.53;34.00;98270.69;2260720;78;21114;-79
2021/04/30 10:11:05;;;;;;;5.87;5.12;;;;;;;18.82;34.00;98270.72;2261341;78;21106;-80
2021/04/30 10:14:06;;;;;;;8.13;5.22;;;;;;;18.91;33.79;98269.12;2260343;78;21399;-79
2021/04/30 10:17:07;;;;;;;6.08;4.92;;;;;;;19.04;33.34;98282.38;2260092;78;21095;-79
2021/04/30 10:20:09;;;;;;;6.70;4.67;;;;;;;19.05;32.50;98273.98;2260290;78;21142;-79
2021/04/30 10:23:10;;;;;;;6.15;5.10;;;;;;;19.12;33.05;98268.08;2260302;78;21103;-79
2021/04/30 10:26:11;;;;;;;6.15;5.20;;;;;;;19.22;32.32;98267.73;2260564;78;21114;-79
2021/04/30 10:29:12;;;;;;;5.30;4.70;;;;;;;19.18;32.49;98273.17;2260880;78;21067;-79
2021/04/30 10:32:13;;;;;;;4.92;4.53;;;;;;;19.31;33.15;98269.22;2261421;78;21233;-78
2021/04/30 10:35:16;;;;;;;6.28;4.53;;;;;;;19.46;32.01;98283.27;2260301;78;21138;-79
2021/04/30 10:38:17;;;;;;;5.20;4.45;;;;;;;19.55;33.03;98264.47;2260647;78;21142;-78
2021/04/30 10:41:19;;;;;;;8.68;4.58;;;;;;;19.80;32.69;98260.99;2260660;78;21165;-80
2021/04/30 10:44:23;;;;;;;5.65;3.90;;;;;;;19.99;31.49;98256.81;2260628;78;21528;-80
2021/04/30 10:47:25;;;;;;;4.22;3.83;;;;;;;20.04;32.86;98250.89;2260213;79;21114;-80
2021/04/30 10:50:26;;;;;;;7.10;4.08;;;;;;;19.98;32.63;98257.28;2259957;78;21107;-79
2021/04/30 10:53:27;;;;;;;8.98;3.95;;;;;;;20.11;32.53;98259.03;2260257;78;21107;-81
2021/04/30 10:56:28;;;;;;;5.75;4.10;;;;;;;20.43;31.78;98245.09;2256660;78;21423;-77
2021/04/30 10:59:30;;;;;;;7.33;3.30;;;;;;;20.42;30.85;98252.19;2247043;79;21186;-79
2021/04/30 11:02:34;;;;;;;3.15;2.90;;;;;;;20.16;29.83;98253.11;2246508;79;21114;-80
2021/04/30 11:05:34;;;;;;;4.20;3.70;;;;;;;20.10;28.79;98249.81;2246995;79;21127;-81
2021/04/30 11:08:35;;;;;;;6.58;3.22;;;;;;;19.77;30.84;98251.38;2247150;79;21226;-81
2021/04/30 11:11:38;;;;;;;3.47;3.10;;;;;;;20.10;31.09;98250.67;2246699;79;21127;-79
2021/04/30 11:14:39;;;;;;;4.65;3.40;;;;;;;20.42;30.09;98253.52;2246459;79;21099;-79
2021/04/30 11:17:40;;;;;;;6.28;3.60;;;;;;;20.72;28.87;98255.93;2245703;79;21346;-78
2021/04/30 11:20:42;;;;;;;6.62;3.50;;;;;;;20.63;28.85;98258.47;2246657;79;21143;-81
2021/04/30 11:23:46;;;;;;;9.48;3.70;;;;;;;20.72;28.51;98261.23;2246661;79;21400;-80
2021/04/30 11:26:46;;;;;;;4.03;3.40;;;;;;;20.56;29.83;98254.32;2246455;79;21094;-81
2021/04/30 11:29:49;;;;;;;4.95;3.77;;;;;;;20.82;28.80;98250.25;2245758;79;21404;-79
2021/04/30 11:32:50;;;;;;;4.70;3.58;;;;;;;20.72;29.18;98253.28;2245847;79;21102;-79
2021/04/30 11:35:51;;;;;;;4.22;3.22;;;;;;;20.82;28.96;98255.55;2246145;79;21087;-80
2021/04/30 11:38:53;;;;;;;3.95;3.00;;;;;;;20.67;28.40;98257.43;2245996;79;21102;-79
2021/04/30 11:41:54;;;;;;;8.93;3.60;;;;;;;20.66;29.52;98250.40;2246222;79;21075;-78
2021/04/30 11:44:55;;;;;;;9.25;3.58;;;;;;;20.77;29.98;98256.16;2246800;79;21126;-79
2021/04/30 11:47:56;;;;;;;4.45;3.22;;;;;;;20.89;29.57;98261.02;2246677;79;21214;-80
2021/04/30 11:50:57;;;;;;;5.10;3.17;;;;;;;20.86;28.55;98252.31;2246749;79;21377;-79
2021/04/30 11:53:59;;;;;;;4.58;3.45;;;;;;;20.69;27.80;98251.61;2246524;79;21118;-80
2021/04/30 11:57:00;;;;;;;6.55;3.80;;;;;;;20.91;28.19;98250.34;2246455;78;21532;-80
2021/04/30 12:00:01;;;;;;;7.22;4.30;;;;;;;21.07;26.71;98255.91;2247017;79;21143;-80
2021/04/30 12:03:02;;;;;;;4.92;4.08;;;;;;;20.78;26.85;98247.27;2246424;79;21067;-79
2021/04/30 12:06:03;;;;;;;4.30;3.90;;;;;;;20.66;27.79;98240.66;2246457;79;21083;-80
2021/04/30 12:09:04;;;;;;;3.50;3.20;;;;;;;20.79;27.32;98236.20;2246719;79;21385;-78
2021/04/30 12:12:06;;;;;;;3.62;3.20;;;;;;;20.64;27.83;98234.55;2246780;79;21108;-79
2021/04/30 12:15:07;;;;;;;4.65;3.87;;;;;;;20.69;28.77;98235.70;2246579;79;21300;-79
2021/04/30 12:18:08;;;;;;;7.50;3.35;;;;;;;20.63;27.45;98230.16;2246516;79;21210;-79
2021/04/30 12:21:10;;;;;;;8.23;3.95;;;;;;;20.90;25.92;98239.34;2246584;79;21264;-79
2021/04/30 12:24:13;;;;;;;5.00;3.50;;;;;;;20.83;26.29;98225.91;2246395;79;21720;-81
2021/04/30 12:27:14;;;;;;;7.30;3.75;;;;;;;20.75;26.17;98237.25;2246855;79;21110;-79
2021/04/30 12:30:15;;;;;;;5.50;3.70;;;;;;;20.19;26.26;98236.23;2247071;79;21409;-80
2021/04/30 12:33:17;;;;;;;5.97;3.75;;;;;;;20.09;26.51;98225.10;2246932;79;21372;-79
2021/04/30 12:36:19;;;;;;;2.72;2.30;;;;;;;20.29;28.09;98226.56;2246620;79;21130;-79
2021/04/30 12:39:20;;;;;;;3.45;2.90;;;;;;;20.66;24.36;98233.16;2246922;79;21158;-80
2021/04/30 12:42:25;;;;;;;4.50;3.27;;;;;;;20.95;23.76;98232.92;2246230;79;21396;-80
2021/04/30 12:45:26;;;;;;;4.47;2.42;;;;;;;20.97;23.02;98247.45;2247453;79;21400;-83
2021/04/30 12:48:27;;;;;;;5.17;3.42;;;;;;;21.01;23.40;98230.48;2247267;79;21099;-79
2021/04/30 12:51:28;;;;;;;4.87;3.37;;;;;;;21.11;23.32;98238.95;2246855;79;21085;-80
2021/04/30 12:54:29;;;;;;;4.22;2.70;;;;;;;20.98;22.88;98236.78;2246667;79;21369;-80
2021/04/30 12:57:31;;;;;;;2.67;2.47;;;;;;;20.68;23.03;98242.78;2246962;78;21170;-81
2021/04/30 13:00:32;;;;;;;7.65;3.02;;;;;;;20.50;22.96;98239.97;2247019;79;21146;-83
2021/04/30 13:03:33;;;;;;;9.43;4.47;;;;;;;20.58;23.53;98228.16;2247477;79;21139;-81
2021/04/30 13:06:36;;;;;;;4.67;3.25;;;;;;;20.63;23.08;98228.84;2246965;79;21094;-82
2021/04/30 13:09:37;;;;;;;6.95;3.37;;;;;;;20.70;23.90;98238.75;2247378;79;21389;-80
2021/04/30 13:12:38;;;;;;;4.17;3.52;;;;;;;20.65;24.34;98227.00;2247424;79;21095;-80
2021/04/30 13:15:40;;;;;;;6.85;3.42;;;;;;;20.59;23.97;98230.34;2247729;79;21107;-79
2021/04/30 13:18:41;;;;;;;5.40;3.50;;;;;;;20.43;25.65;98230.06;2247573;79;21103;-82
2021/04/30 13:21:42;;;;;;;8.25;6.12;;;;;;;20.52;25.53;98220.89;2247564;79;21091;-81
2021/04/30 13:24:44;;;;;;;6.17;5.50;;;;;;;20.16;25.88;98228.39;2247475;79;21218;-81
2021/04/30 13:27:45;;;;;;;6.20;5.60;;;;;;;20.31;26.40;98231.80;2248199;79;21126;-79
2021/04/30 13:30:46;;;;;;;5.95;4.78;;;;;;;20.40;25.60;98224.01;2248247;79;21361;-80
2021/04/30 13:33:47;;;;;;;9.35;5.22;;;;;;;20.31;26.12;98222.53;2248118;79;21131;-80
2021/04/30 13:36:48;;;;;;;9.53;6.95;;;;;;;20.39;26.43;98211.22;2248079;79;21099;-79
2021/04/30 13:39:49;;;;;;;5.37;4.35;;;;;;;20.55;26.87;98214.14;2247356;79;21269;-81
2021/04/30 13:42:50;;;;;;;7.62;5.42;;;;;;;20.72;26.54;98214.36;2247510;79;21161;-80
2021/04/30 13:45:52;;;;;;;8.08;5.25;;;;;;;20.74;26.98;98212.52;2247417;79;21214;-81
2021/04/30 13:48:58;;;;;;;5.25;4.03;;;;;;;20.98;26.26;98207.59;2247619;79;21130;-80
2021/04/30 13:51:56;;;;;;;30.13;5.13;;;;;;;21.04;25.92;98220.22;2247124;79;21123;-80
2021/04/30 13:54:57;;;;;;;4.65;3.58;;;;;;;21.04;25.92;98220.22;2247404;79;21528;-80
2021/04/30 13:57:58;;;;;;;5.25;4.37;;;;;;;21.06;26.32;98201.98;2255983;78;21161;-83
2021/04/30 14:00:59;;;;;;;5.78;4.45;;;;;;;21.07;26.17;98210.34;2262238;78;21137;-80
2021/04/30 14:04:00;;;;;;;6.47;4.72;;;;;;;20.60;26.87;98209.53;2265009;78;21102;-80